Luverne, MN

6:57 PM CST on February 27, 2017 (GMT -0600)
Luverne

Weather History for KLYV - November, 2012

Change the Weather History Date:

Friday, November 2, 2012

  Actual Average (KPQN) Record (KPQN)
Temperature  
Mean Temperature 36 °F -  
Max Temperature 41 °F 46 °F 73 °F (2005)
Min Temperature 32 °F 29 °F 12 °F (1996)
Degree Days  
Heating Degree Days 28    
Moisture  
Dew Point 27 °F    
Average Humidity 71    
Maximum Humidity 80    
Minimum Humidity 57    
Precipitation  
Precipitation 0.00 in - - ()
Sea Level Pressure  
Sea Level Pressure 30.06 in    
Wind  
Wind Speed 8 mph (East)    
Max Wind Speed 12 mph    
Max Gust Speed 16 mph    
Visibility 10 miles    
Events      
Averages and records for this station are not official NWS values.
T = Trace of Precipitation, MM = Missing Value Source: NWS Daily Summary

Daily Weather History Graph

Daily Weather History Graph

Search for Another Location

Airport or City:

Trip Planner

Search our weather history database for the weather conditions in past years. The results will help you decide how hot, cold, wet, or windy it might be!

Date:

Astronomy

Nov. 02, 2012 Rise Set
Actual Time 8:02 AM CDT 6:13 PM CDT
Civil Twilight 7:32 AM CDT 6:43 PM CDT
Nautical Twilight 6:58 AM CDT 7:17 PM CDT
Astronomical Twilight 6:25 AM CDT 7:50 PM CDT
Moon 8:58 PM CDT (11/2) 11:27 AM CDT (11/2)
Length of Visible Light 11h 11m
Length of Day
10h 11m
Waning Gibbous, 87% of the Moon is Illuminated
Nov 2
Waning Gibbous
Nov 6
Last Quarter
Nov 13
New
Nov 20
First Quarter
Nov 28
Full

Hourly Weather History & Observations

Time (CDT) Temp. Windchill Dew Point Humidity Pressure Visibility Wind Dir Wind Speed Gust Speed Precip Events Conditions
12:14 AM 32.0 °F 25.6 °F 26.6 °F 80% 30.04 in 10.0 mi NE 6.9 mph - N/A   Clear
12:35 AM 32.0 °F 25.6 °F 26.6 °F 80% 30.04 in 10.0 mi NE 6.9 mph - N/A   Clear
12:54 AM 32.0 °F 25.6 °F 26.6 °F 80% 30.04 in 10.0 mi NE 6.9 mph - N/A   Clear
1:14 AM 32.0 °F 24.8 °F 26.6 °F 80% 30.04 in 10.0 mi NE 8.1 mph - N/A   Clear
1:34 AM 32.0 °F 24.8 °F 26.6 °F 80% 30.03 in 10.0 mi ENE 8.1 mph - N/A   Clear
1:54 AM 32.0 °F 25.6 °F 26.6 °F 80% 30.03 in 10.0 mi ENE 6.9 mph - N/A   Clear
2:15 AM 32.0 °F 24.2 °F 26.6 °F 80% 30.02 in 10.0 mi ENE 9.2 mph - N/A   Clear
2:34 AM 32.0 °F 23.6 °F 24.8 °F 75% 30.02 in 10.0 mi ENE 10.4 mph - N/A   Clear
2:54 AM 32.0 °F 25.6 °F 24.8 °F 75% 30.02 in 10.0 mi East 6.9 mph - N/A   Clear
3:14 AM 32.0 °F 26.4 °F 24.8 °F 75% 30.02 in 10.0 mi East 5.8 mph - N/A   Clear
3:34 AM 32.0 °F 27.5 °F 24.8 °F 75% 30.02 in 10.0 mi East 4.6 mph - N/A   Clear
3:55 AM 32.0 °F 28.7 °F 24.8 °F 75% 30.02 in 10.0 mi East 3.5 mph - N/A   Clear
4:14 AM 32.0 °F 26.4 °F 24.8 °F 75% 30.02 in 10.0 mi East 5.8 mph - N/A   Clear
4:34 AM 32.0 °F 26.4 °F 24.8 °F 75% 30.02 in 10.0 mi East 5.8 mph - N/A   Clear
4:55 AM 32.0 °F 26.4 °F 26.6 °F 80% 30.02 in 10.0 mi East 5.8 mph - N/A   Clear
5:14 AM 32.0 °F 27.5 °F 24.8 °F 75% 30.02 in 10.0 mi East 4.6 mph - N/A   Clear
5:34 AM 32.0 °F 27.5 °F 24.8 °F 75% 30.02 in 10.0 mi ESE 4.6 mph - N/A   Clear
5:54 AM 32.0 °F 27.5 °F 24.8 °F 75% 30.02 in 10.0 mi East 4.6 mph - N/A   Clear
6:14 AM 32.0 °F 25.6 °F 26.6 °F 80% 30.02 in 10.0 mi East 6.9 mph - N/A   Clear
6:35 AM 32.0 °F 24.8 °F 26.6 °F 80% 30.01 in 10.0 mi East 8.1 mph - N/A   Clear
6:55 AM 32.0 °F 24.8 °F 26.6 °F 80% 30.01 in 10.0 mi East 8.1 mph - N/A   Clear
7:14 AM 32.0 °F 26.4 °F 26.6 °F 80% 30.02 in 10.0 mi East 5.8 mph - N/A   Clear
7:35 AM 32.0 °F 24.8 °F 26.6 °F 80% 30.03 in 10.0 mi East 8.1 mph - N/A   Clear
7:55 AM 32.0 °F 24.8 °F 26.6 °F 80% 30.03 in 10.0 mi East 8.1 mph - N/A   Clear
8:14 AM 32.0 °F 24.2 °F 26.6 °F 80% 30.04 in 10.0 mi East 9.2 mph - N/A   Clear
8:35 AM 32.0 °F 24.2 °F 26.6 °F 80% 30.04 in 10.0 mi East 9.2 mph - N/A   Clear
8:54 AM 32.0 °F 23.6 °F 26.6 °F 80% 30.04 in 10.0 mi East 10.4 mph - N/A   Clear
9:14 AM 32.0 °F 23.6 °F 26.6 °F 80% 30.05 in 10.0 mi East 10.4 mph - N/A   Clear
9:34 AM 32.0 °F 24.2 °F 26.6 °F 80% 30.05 in 10.0 mi East 9.2 mph - N/A   Clear
9:54 AM 33.8 °F 25.8 °F 26.6 °F 75% 30.05 in 10.0 mi ESE 10.4 mph - N/A   Clear
10:15 AM 33.8 °F 25.8 °F 26.6 °F 75% 30.06 in 10.0 mi East 10.4 mph - N/A   Clear
10:34 AM 33.8 °F 26.4 °F 26.6 °F 75% 30.07 in 10.0 mi ESE 9.2 mph - N/A   Clear
10:52 AM 33.8 °F 26.4 °F 26.6 °F 75% 30.08 in 10.0 mi ESE 9.2 mph - N/A   Clear
11:14 AM 35.6 °F 28.0 °F 26.6 °F 70% 30.08 in 10.0 mi East 10.4 mph - N/A   Clear
11:34 AM 35.6 °F 28.0 °F 26.6 °F 70% 30.08 in 10.0 mi East 10.4 mph 16.1 mph N/A   Clear
11:55 AM 37.4 °F 30.3 °F 28.4 °F 70% 30.08 in 10.0 mi East 10.4 mph - N/A   Clear
12:14 PM 37.4 °F 30.3 °F 28.4 °F 70% 30.08 in 10.0 mi East 10.4 mph - N/A   Clear
12:34 PM 37.4 °F 30.3 °F 26.6 °F 65% 30.08 in 10.0 mi East 10.4 mph - N/A   Clear
12:55 PM 37.4 °F 30.3 °F 26.6 °F 65% 30.08 in 10.0 mi East 10.4 mph - N/A   Scattered Clouds
1:15 PM 39.2 °F 32.0 °F 26.6 °F 61% 30.06 in 10.0 mi East 11.5 mph - N/A   Mostly Cloudy
1:34 PM 41.0 °F 34.7 °F 26.6 °F 57% 30.06 in 10.0 mi East 10.4 mph - N/A   Overcast
1:55 PM 41.0 °F 34.7 °F 28.4 °F 61% 30.05 in 10.0 mi East 10.4 mph - N/A   Overcast
2:34 PM 41.0 °F 34.7 °F 26.6 °F 57% 30.04 in 10.0 mi ESE 10.4 mph - N/A   Mostly Cloudy
2:55 PM 41.0 °F 35.2 °F 26.6 °F 57% 30.05 in 10.0 mi East 9.2 mph - N/A   Overcast
3:15 PM 41.0 °F 34.7 °F 26.6 °F 57% 30.04 in 10.0 mi East 10.4 mph - N/A   Overcast
3:34 PM 41.0 °F 34.7 °F 26.6 °F 57% 30.04 in 10.0 mi East 10.4 mph - N/A   Overcast
3:55 PM 41.0 °F 35.2 °F 26.6 °F 57% 30.05 in 10.0 mi East 9.2 mph - N/A   Overcast
4:14 PM 41.0 °F 34.3 °F 26.6 °F 57% 30.04 in 10.0 mi East 11.5 mph - N/A   Overcast
4:34 PM 41.0 °F 34.7 °F 26.6 °F 57% 30.05 in 10.0 mi East 10.4 mph - N/A   Overcast
4:54 PM 41.0 °F 34.7 °F 28.4 °F 61% 30.05 in 10.0 mi East 10.4 mph - N/A   Overcast
5:14 PM 41.0 °F 35.2 °F 28.4 °F 61% 30.05 in 10.0 mi ESE 9.2 mph - N/A   Overcast
5:34 PM 41.0 °F 35.8 °F 28.4 °F 61% 30.05 in 10.0 mi East 8.1 mph - N/A   Overcast
5:54 PM 41.0 °F 35.8 °F 28.4 °F 61% 30.05 in 10.0 mi East 8.1 mph - N/A   Overcast
6:15 PM 41.0 °F 36.4 °F 28.4 °F 61% 30.06 in 10.0 mi East 6.9 mph - N/A   Overcast
6:34 PM 41.0 °F 36.4 °F 28.4 °F 61% 30.07 in 10.0 mi ESE 6.9 mph - N/A   Overcast
6:54 PM 41.0 °F 39.0 °F 28.4 °F 61% 30.08 in 10.0 mi East 3.5 mph - N/A   Overcast
7:15 PM 41.0 °F 39.0 °F 28.4 °F 61% 30.09 in 10.0 mi ESE 3.5 mph - N/A   Overcast
7:34 PM 41.0 °F 39.0 °F 28.4 °F 61% 30.10 in 10.0 mi East 3.5 mph - N/A   Overcast
7:54 PM 41.0 °F 39.0 °F 28.4 °F 61% 30.10 in 10.0 mi East 3.5 mph - N/A   Overcast
8:14 PM 41.0 °F - 28.4 °F 61% 30.10 in 10.0 mi Calm Calm - N/A   Overcast
8:34 PM 39.2 °F 37.0 °F 30.2 °F 70% 30.11 in 10.0 mi NNE 3.5 mph - N/A   Overcast
8:55 PM 39.2 °F 35.9 °F 30.2 °F 70% 30.11 in 10.0 mi ENE 4.6 mph - N/A   Overcast
9:14 PM 37.4 °F 32.1 °F 30.2 °F 75% 30.11 in 10.0 mi ENE 6.9 mph - N/A   Overcast
9:34 PM 37.4 °F 32.1 °F 30.2 °F 75% 30.11 in 10.0 mi ENE 6.9 mph - N/A   Overcast
9:55 PM 37.4 °F 33.8 °F 30.2 °F 75% 30.11 in 10.0 mi ENE 4.6 mph - N/A   Overcast
10:14 PM 37.4 °F 32.1 °F 30.2 °F 75% 30.12 in 10.0 mi ENE 6.9 mph - N/A   Overcast
10:34 PM 37.4 °F 32.8 °F 30.2 °F 75% 30.12 in 10.0 mi ENE 5.8 mph - N/A   Overcast
10:54 PM 37.4 °F 32.1 °F 30.2 °F 75% 30.12 in 10.0 mi ENE 6.9 mph - N/A   Overcast
11:14 PM 37.4 °F 32.1 °F 30.2 °F 75% 30.13 in 10.0 mi ENE 6.9 mph - N/A   Overcast
11:35 PM 37.4 °F 32.8 °F 30.2 °F 75% 30.13 in 10.0 mi NE 5.8 mph - N/A   Overcast
11:54 PM 37.4 °F 32.8 °F 30.2 °F 75% 30.14 in 10.0 mi NE 5.8 mph - N/A   Overcast